Sunday, May 27, 2018, 3:44 PM GMT
Back to Local

CYCX, Gagetown Can-Mil

Location: , , Canada Lat: 45.833
Local Time: 3:44 PM GMT (15:44 GMT) Lon: -66.433
Time Zone: GMT Elev: 167 ft

Show me the last for .
Show Coded

Time T Td Feel RH Dir Speed Gust Alt SLP Vis Weather Sky Remarks
2018-05-27 15:00 57 34 - 41 130° 7 - 30.30 30.30 15 FEW230 None
2018-05-27 14:00 54 37 - 54 60° 3 - 30.31 30.31 15 CLR None
2018-05-27 13:00 50 39 48 66 90° 5 - 30.31 30.32 15 CLR None
2018-05-27 12:00 46 39 44 75 110° 6 - 30.30 30.31 15 FEW012 None
2018-05-27 11:00 45 43 41 93 80° 6 - 30.29 30.29 15 FEW010 None
2018-05-27 10:00 41 41 38 100 70° 5 - 30.28 30.28 15 FEW260 None
2018-05-27 09:00 37 37 35 100 60° 3 - 30.27 30.27 15 MIFG FEW220 None
2018-05-27 08:00 37 37 - 100 50° 2 - 30.24 30.25 15 MIFG FEW220 None
2018-05-27 07:00 39 39 37 100 50° 3 - 30.22 30.22 15 CLR None
2018-05-27 06:00 41 39 - 93 60° 2 - 30.20 30.20 15 FEW220 None
2018-05-27 05:00 43 39 40 86 50° 5 - 30.18 30.18 15 FEW220 None
2018-05-27 04:00 45 39 43 81 60° 3 - 30.15 30.15 15 FEW220 None
2018-05-27 03:00 46 41 45 81 70° 3 - 30.12 30.12 15 FEW220 None
2018-05-27 02:00 50 41 48 71 80° 5 - 30.09 30.09 15 FEW220 None
2018-05-27 01:00 52 39 - 62 70° 8 - 30.04 30.05 15 FEW030 FEW220 None
2018-05-27 00:00 55 41 - 58 70° 8 17 30.00 30.00 15 FEW030 FEW110 SCT220 Pressure rising rapidly
2018-05-26 23:00 59 45 - 58 60° 15 - 29.93 29.94 15 FEW090 SCT220 None
2018-05-26 22:00 61 46 - 59 60° 12 18 29.88 29.88 15 FEW070 SCT220 Pressure rising rapidly
2018-05-26 21:00 68 39 - 34 330° 13 - 29.82 29.82 15 FEW076 FEW087 BKN220 None
2018-05-26 20:00 66 39 - 37 320° 15 22 29.80 29.80 15 FEW078 BKN092 BKN220 None
2018-05-26 19:00 68 41 - 37 330° 15 21 29.77 29.77 15 FEW066 BKN090 BKN220 None
2018-05-26 18:00 63 54 - 72 250° 3 - 29.74 29.75 15 FEW042 BKN096 BKN220 None
2018-05-26 17:26 61 54 - 77 - Calm - 29.74 29.74 15 SCT024 BKN090 None
2018-05-26 17:00 61 55 - 82 - Calm - 29.74 29.74 15 SCT015 BKN024 None
2018-05-26 16:00 55 54 - 93 350° 6 - 29.74 29.74 15 OVC008 None

Support USWX by starting your Amazon purchase here.